Terminal Aerodrome Forecast
Issued by NWS Wilmington, OH

Home | Current Version | Previous Version | Text Only | Print | Product List | Glossary On
Versions: 1 2 3 4 5 6 7 8 9 10 11 12 13 14 15 16 17 18 19 20 21 22 23 24
000
FTUS41 KILN 251100
TAFDAY
TAF
KDAY 251136Z 2512/2612 23005KT P6SM SCT040 BKN100
     FM251400 23012G18KT P6SM BKN035
     FM251900 29012G18KT P6SM SCT040
     FM260000 30010KT P6SM SKC=

USA.gov is the U.S. government's official web portal to all federal, state and local government web resources and services.